sensor_id;sensor_type;location;lat;lon;timestamp;P1;durP1;ratioP1;P2;durP2;ratioP2
43048;SDS011;28673;44.412;11.918;2023-05-10T00:01:40;10.10;;;4.57;;
43048;SDS011;28673;44.412;11.918;2023-05-10T00:04:06;9.57;;;5.20;;
43048;SDS011;28673;44.412;11.918;2023-05-10T00:06:32;5.82;;;4.28;;
43048;SDS011;28673;44.412;11.918;2023-05-10T00:08:57;5.90;;;3.83;;
43048;SDS011;28673;44.412;11.918;2023-05-10T00:11:23;7.22;;;4.13;;
43048;SDS011;28673;44.412;11.918;2023-05-10T00:13:49;6.70;;;4.03;;
43048;SDS011;28673;44.412;11.918;2023-05-10T00:16:15;5.78;;;4.00;;
43048;SDS011;28673;44.412;11.918;2023-05-10T00:18:59;8.50;;;3.80;;
43048;SDS011;28673;44.412;11.918;2023-05-10T00:21:25;5.65;;;4.35;;
43048;SDS011;28673;44.412;11.918;2023-05-10T00:23:53;4.60;;;4.18;;
43048;SDS011;28673;44.412;11.918;2023-05-10T00:26:19;8.93;;;4.28;;
43048;SDS011;28673;44.412;11.918;2023-05-10T00:31:35;10.45;;;5.32;;
43048;SDS011;28673;44.412;11.918;2023-05-10T00:34:00;7.63;;;5.55;;
43048;SDS011;28673;44.412;11.918;2023-05-10T00:36:45;6.78;;;5.18;;
43048;SDS011;28673;44.412;11.918;2023-05-10T00:39:11;11.25;;;5.30;;
43048;SDS011;28673;44.412;11.918;2023-05-10T00:41:55;8.35;;;5.70;;
43048;SDS011;28673;44.412;11.918;2023-05-10T00:44:21;9.95;;;5.05;;
43048;SDS011;28673;44.412;11.918;2023-05-10T00:47:06;6.70;;;4.95;;
43048;SDS011;28673;44.412;11.918;2023-05-10T00:49:32;14.35;;;5.57;;
43048;SDS011;28673;44.412;11.918;2023-05-10T00:54:44;7.80;;;4.60;;
43048;SDS011;28673;44.412;11.918;2023-05-10T00:57:10;8.60;;;5.03;;
43048;SDS011;28673;44.412;11.918;2023-05-10T00:59:36;10.40;;;5.25;;
43048;SDS011;28673;44.412;11.918;2023-05-10T01:02:21;9.23;;;5.20;;
43048;SDS011;28673;44.412;11.918;2023-05-10T01:04:47;9.25;;;5.38;;
43048;SDS011;28673;44.412;11.918;2023-05-10T01:10:19;8.50;;;6.03;;
43048;SDS011;28673;44.412;11.918;2023-05-10T01:13:04;6.15;;;5.50;;
43048;SDS011;28673;44.412;11.918;2023-05-10T01:15:30;5.30;;;4.72;;
43048;SDS011;28673;44.412;11.918;2023-05-10T01:18:15;9.07;;;5.72;;
43048;SDS011;28673;44.412;11.918;2023-05-10T01:20:45;7.45;;;5.00;;
43048;SDS011;28673;44.412;11.918;2023-05-10T01:24:03;8.57;;;5.28;;
43048;SDS011;28673;44.412;11.918;2023-05-10T01:27:33;5.05;;;4.53;;
43048;SDS011;28673;44.412;11.918;2023-05-10T01:36:35;8.82;;;4.75;;
43048;SDS011;28673;44.412;11.918;2023-05-10T01:42:00;11.15;;;5.50;;
43048;SDS011;28673;44.412;11.918;2023-05-10T01:44:52;6.22;;;5.00;;
43048;SDS011;28673;44.412;11.918;2023-05-10T01:47:37;11.57;;;5.90;;
43048;SDS011;28673;44.412;11.918;2023-05-10T01:52:55;10.23;;;5.10;;
43048;SDS011;28673;44.412;11.918;2023-05-10T01:55:25;8.98;;;5.13;;
43048;SDS011;28673;44.412;11.918;2023-05-10T02:00:42;11.63;;;5.65;;
43048;SDS011;28673;44.412;11.918;2023-05-10T02:03:10;8.82;;;5.90;;
43048;SDS011;28673;44.412;11.918;2023-05-10T02:06:14;11.60;;;6.07;;
43048;SDS011;28673;44.412;11.918;2023-05-10T02:08:43;9.45;;;5.30;;
43048;SDS011;28673;44.412;11.918;2023-05-10T02:11:11;13.05;;;6.65;;
43048;SDS011;28673;44.412;11.918;2023-05-10T02:13:39;8.32;;;5.50;;
43048;SDS011;28673;44.412;11.918;2023-05-10T02:16:06;5.47;;;4.85;;
43048;SDS011;28673;44.412;11.918;2023-05-10T02:18:33;11.98;;;7.15;;
43048;SDS011;28673;44.412;11.918;2023-05-10T02:21:03;10.43;;;6.05;;
43048;SDS011;28673;44.412;11.918;2023-05-10T02:23:30;6.55;;;5.00;;
43048;SDS011;28673;44.412;11.918;2023-05-10T02:25:57;10.30;;;5.65;;
43048;SDS011;28673;44.412;11.918;2023-05-10T02:28:25;9.48;;;6.03;;
43048;SDS011;28673;44.412;11.918;2023-05-10T02:30:52;7.38;;;5.68;;
43048;SDS011;28673;44.412;11.918;2023-05-10T02:33:19;11.35;;;6.38;;
43048;SDS011;28673;44.412;11.918;2023-05-10T02:35:46;8.77;;;6.03;;
43048;SDS011;28673;44.412;11.918;2023-05-10T02:38:13;9.18;;;6.28;;
43048;SDS011;28673;44.412;11.918;2023-05-10T02:40:40;8.07;;;6.13;;
43048;SDS011;28673;44.412;11.918;2023-05-10T02:43:09;13.90;;;5.68;;
43048;SDS011;28673;44.412;11.918;2023-05-10T02:45:39;7.40;;;5.32;;
43048;SDS011;28673;44.412;11.918;2023-05-10T02:48:08;7.85;;;6.30;;
43048;SDS011;28673;44.412;11.918;2023-05-10T02:50:34;8.40;;;6.10;;
43048;SDS011;28673;44.412;11.918;2023-05-10T02:53:09;13.25;;;6.13;;
43048;SDS011;28673;44.412;11.918;2023-05-10T02:55:40;10.23;;;4.82;;
43048;SDS011;28673;44.412;11.918;2023-05-10T02:58:08;13.82;;;6.22;;
43048;SDS011;28673;44.412;11.918;2023-05-10T03:00:34;10.50;;;7.15;;
43048;SDS011;28673;44.412;11.918;2023-05-10T03:03:01;8.70;;;5.72;;
43048;SDS011;28673;44.412;11.918;2023-05-10T03:05:27;8.13;;;5.05;;
43048;SDS011;28673;44.412;11.918;2023-05-10T03:07:54;10.93;;;5.18;;
43048;SDS011;28673;44.412;11.918;2023-05-10T03:10:22;13.35;;;5.30;;
43048;SDS011;28673;44.412;11.918;2023-05-10T03:18:27;9.68;;;7.50;;
43048;SDS011;28673;44.412;11.918;2023-05-10T03:21:02;11.48;;;5.75;;
43048;SDS011;28673;44.412;11.918;2023-05-10T03:23:40;9.95;;;4.88;;
43048;SDS011;28673;44.412;11.918;2023-05-10T03:26:07;11.10;;;5.53;;
43048;SDS011;28673;44.412;11.918;2023-05-10T03:28:34;8.95;;;6.22;;
43048;SDS011;28673;44.412;11.918;2023-05-10T03:31:03;7.97;;;5.72;;
43048;SDS011;28673;44.412;11.918;2023-05-10T03:33:32;8.05;;;6.22;;
43048;SDS011;28673;44.412;11.918;2023-05-10T03:35:58;10.93;;;6.65;;
43048;SDS011;28673;44.412;11.918;2023-05-10T03:38:25;7.13;;;5.82;;
43048;SDS011;28673;44.412;11.918;2023-05-10T03:40:51;8.98;;;6.07;;
43048;SDS011;28673;44.412;11.918;2023-05-10T03:43:17;9.93;;;6.10;;
43048;SDS011;28673;44.412;11.918;2023-05-10T03:45:42;7.90;;;6.28;;
43048;SDS011;28673;44.412;11.918;2023-05-10T03:48:09;7.15;;;5.57;;
43048;SDS011;28673;44.412;11.918;2023-05-10T03:50:35;10.63;;;6.93;;
43048;SDS011;28673;44.412;11.918;2023-05-10T03:53:01;15.48;;;6.88;;
43048;SDS011;28673;44.412;11.918;2023-05-10T03:55:27;9.77;;;7.05;;
43048;SDS011;28673;44.412;11.918;2023-05-10T03:57:55;15.02;;;7.30;;
43048;SDS011;28673;44.412;11.918;2023-05-10T04:00:22;9.77;;;7.10;;
43048;SDS011;28673;44.412;11.918;2023-05-10T04:02:53;13.77;;;6.85;;
43048;SDS011;28673;44.412;11.918;2023-05-10T04:05:19;12.02;;;7.38;;
43048;SDS011;28673;44.412;11.918;2023-05-10T04:07:48;10.27;;;6.90;;
43048;SDS011;28673;44.412;11.918;2023-05-10T04:10:17;13.93;;;7.63;;
43048;SDS011;28673;44.412;11.918;2023-05-10T04:12:43;14.00;;;7.38;;
43048;SDS011;28673;44.412;11.918;2023-05-10T04:15:10;12.13;;;7.97;;
43048;SDS011;28673;44.412;11.918;2023-05-10T04:17:36;12.80;;;8.23;;
43048;SDS011;28673;44.412;11.918;2023-05-10T04:20:05;11.77;;;7.13;;
43048;SDS011;28673;44.412;11.918;2023-05-10T04:22:32;10.68;;;6.97;;
43048;SDS011;28673;44.412;11.918;2023-05-10T04:24:58;11.07;;;7.35;;
43048;SDS011;28673;44.412;11.918;2023-05-10T04:27:24;10.88;;;6.72;;
43048;SDS011;28673;44.412;11.918;2023-05-10T04:29:50;11.90;;;7.97;;
43048;SDS011;28673;44.412;11.918;2023-05-10T04:32:24;9.32;;;6.97;;
43048;SDS011;28673;44.412;11.918;2023-05-10T04:34:54;10.10;;;7.63;;
43048;SDS011;28673;44.412;11.918;2023-05-10T04:37:22;12.63;;;7.53;;
43048;SDS011;28673;44.412;11.918;2023-05-10T04:39:48;11.10;;;6.72;;
43048;SDS011;28673;44.412;11.918;2023-05-10T04:42:14;19.63;;;9.25;;
43048;SDS011;28673;44.412;11.918;2023-05-10T04:44:40;11.20;;;6.88;;
43048;SDS011;28673;44.412;11.918;2023-05-10T04:47:06;10.48;;;7.05;;
43048;SDS011;28673;44.412;11.918;2023-05-10T04:49:32;11.35;;;6.38;;
43048;SDS011;28673;44.412;11.918;2023-05-10T04:52:03;12.95;;;6.65;;
43048;SDS011;28673;44.412;11.918;2023-05-10T04:54:45;11.50;;;6.80;;
43048;SDS011;28673;44.412;11.918;2023-05-10T04:57:14;9.52;;;5.80;;
43048;SDS011;28673;44.412;11.918;2023-05-10T04:59:43;10.80;;;6.47;;
43048;SDS011;28673;44.412;11.918;2023-05-10T05:02:09;13.15;;;6.13;;
43048;SDS011;28673;44.412;11.918;2023-05-10T05:04:35;9.48;;;6.10;;
43048;SDS011;28673;44.412;11.918;2023-05-10T05:07:01;11.32;;;7.55;;
43048;SDS011;28673;44.412;11.918;2023-05-10T05:09:30;9.45;;;6.55;;
43048;SDS011;28673;44.412;11.918;2023-05-10T05:11:58;7.93;;;6.25;;
43048;SDS011;28673;44.412;11.918;2023-05-10T05:14:24;11.13;;;6.65;;
43048;SDS011;28673;44.412;11.918;2023-05-10T05:16:51;9.27;;;5.75;;
43048;SDS011;28673;44.412;11.918;2023-05-10T05:19:23;10.38;;;6.75;;
43048;SDS011;28673;44.412;11.918;2023-05-10T05:21:49;12.18;;;7.15;;
43048;SDS011;28673;44.412;11.918;2023-05-10T05:24:15;10.65;;;7.15;;
43048;SDS011;28673;44.412;11.918;2023-05-10T05:26:41;11.32;;;6.72;;
43048;SDS011;28673;44.412;11.918;2023-05-10T05:29:10;8.38;;;6.47;;
43048;SDS011;28673;44.412;11.918;2023-05-10T05:31:36;9.32;;;6.32;;
43048;SDS011;28673;44.412;11.918;2023-05-10T05:34:02;11.95;;;6.97;;
43048;SDS011;28673;44.412;11.918;2023-05-10T05:36:28;7.88;;;6.10;;
43048;SDS011;28673;44.412;11.918;2023-05-10T05:38:57;8.13;;;6.50;;
43048;SDS011;28673;44.412;11.918;2023-05-10T05:41:23;17.13;;;7.60;;
43048;SDS011;28673;44.412;11.918;2023-05-10T05:43:49;9.98;;;6.82;;
43048;SDS011;28673;44.412;11.918;2023-05-10T05:46:15;11.30;;;7.95;;
43048;SDS011;28673;44.412;11.918;2023-05-10T05:48:41;13.27;;;6.82;;
43048;SDS011;28673;44.412;11.918;2023-05-10T05:51:07;19.15;;;8.50;;
43048;SDS011;28673;44.412;11.918;2023-05-10T05:53:38;14.38;;;7.70;;
43048;SDS011;28673;44.412;11.918;2023-05-10T05:56:04;12.80;;;7.68;;
43048;SDS011;28673;44.412;11.918;2023-05-10T05:58:48;9.50;;;7.38;;
43048;SDS011;28673;44.412;11.918;2023-05-10T06:01:14;12.35;;;7.97;;
43048;SDS011;28673;44.412;11.918;2023-05-10T06:03:40;13.18;;;7.15;;
43048;SDS011;28673;44.412;11.918;2023-05-10T06:06:06;13.68;;;8.15;;
43048;SDS011;28673;44.412;11.918;2023-05-10T06:08:32;12.52;;;7.82;;
43048;SDS011;28673;44.412;11.918;2023-05-10T06:10:59;10.45;;;7.43;;
43048;SDS011;28673;44.412;11.918;2023-05-10T06:13:26;9.52;;;7.50;;
43048;SDS011;28673;44.412;11.918;2023-05-10T06:15:57;9.98;;;7.15;;
43048;SDS011;28673;44.412;11.918;2023-05-10T06:18:23;9.88;;;7.15;;
43048;SDS011;28673;44.412;11.918;2023-05-10T06:20:53;8.38;;;7.05;;
43048;SDS011;28673;44.412;11.918;2023-05-10T06:23:20;12.25;;;7.03;;
43048;SDS011;28673;44.412;11.918;2023-05-10T06:25:47;11.75;;;6.72;;
43048;SDS011;28673;44.412;11.918;2023-05-10T06:28:13;13.40;;;7.25;;
43048;SDS011;28673;44.412;11.918;2023-05-10T06:30:39;11.18;;;7.72;;
43048;SDS011;28673;44.412;11.918;2023-05-10T06:33:05;10.60;;;7.43;;
43048;SDS011;28673;44.412;11.918;2023-05-10T06:35:30;11.07;;;8.00;;
43048;SDS011;28673;44.412;11.918;2023-05-10T06:37:59;8.93;;;7.22;;
43048;SDS011;28673;44.412;11.918;2023-05-10T06:40:25;11.82;;;7.05;;
43048;SDS011;28673;44.412;11.918;2023-05-10T06:42:51;12.93;;;7.63;;
43048;SDS011;28673;44.412;11.918;2023-05-10T06:45:17;9.70;;;7.40;;
43048;SDS011;28673;44.412;11.918;2023-05-10T06:47:43;11.80;;;7.43;;
43048;SDS011;28673;44.412;11.918;2023-05-10T06:50:11;17.67;;;7.50;;
43048;SDS011;28673;44.412;11.918;2023-05-10T06:52:39;12.80;;;7.78;;
43048;SDS011;28673;44.412;11.918;2023-05-10T06:55:06;13.45;;;8.27;;
43048;SDS011;28673;44.412;11.918;2023-05-10T06:57:33;12.52;;;7.65;;
43048;SDS011;28673;44.412;11.918;2023-05-10T06:59:59;11.60;;;7.80;;
43048;SDS011;28673;44.412;11.918;2023-05-10T07:02:26;12.25;;;8.10;;
43048;SDS011;28673;44.412;11.918;2023-05-10T07:05:00;9.63;;;7.70;;
43048;SDS011;28673;44.412;11.918;2023-05-10T07:07:30;10.32;;;7.63;;
43048;SDS011;28673;44.412;11.918;2023-05-10T07:09:59;9.63;;;7.57;;
43048;SDS011;28673;44.412;11.918;2023-05-10T07:12:25;11.10;;;6.35;;
43048;SDS011;28673;44.412;11.918;2023-05-10T07:14:51;10.80;;;7.28;;
43048;SDS011;28673;44.412;11.918;2023-05-10T07:17:17;12.98;;;6.78;;
43048;SDS011;28673;44.412;11.918;2023-05-10T07:19:44;12.90;;;7.72;;
43048;SDS011;28673;44.412;11.918;2023-05-10T07:22:10;9.55;;;6.95;;
43048;SDS011;28673;44.412;11.918;2023-05-10T07:24:36;9.02;;;6.65;;
43048;SDS011;28673;44.412;11.918;2023-05-10T07:27:02;14.20;;;7.93;;
43048;SDS011;28673;44.412;11.918;2023-05-10T07:29:29;10.13;;;7.05;;
43048;SDS011;28673;44.412;11.918;2023-05-10T07:31:57;17.15;;;7.00;;
43048;SDS011;28673;44.412;11.918;2023-05-10T07:34:24;12.93;;;7.32;;
43048;SDS011;28673;44.412;11.918;2023-05-10T07:36:52;12.95;;;8.50;;
43048;SDS011;28673;44.412;11.918;2023-05-10T07:39:18;11.18;;;8.20;;
43048;SDS011;28673;44.412;11.918;2023-05-10T07:41:49;10.40;;;7.30;;
43048;SDS011;28673;44.412;11.918;2023-05-10T07:44:20;15.35;;;7.10;;
43048;SDS011;28673;44.412;11.918;2023-05-10T07:46:56;10.35;;;7.20;;
43048;SDS011;28673;44.412;11.918;2023-05-10T07:49:25;13.18;;;7.53;;
43048;SDS011;28673;44.412;11.918;2023-05-10T07:51:53;12.95;;;7.68;;
43048;SDS011;28673;44.412;11.918;2023-05-10T07:54:19;12.23;;;7.32;;
43048;SDS011;28673;44.412;11.918;2023-05-10T07:56:45;10.85;;;7.57;;
43048;SDS011;28673;44.412;11.918;2023-05-10T07:59:16;8.55;;;6.57;;
43048;SDS011;28673;44.412;11.918;2023-05-10T08:01:48;11.47;;;6.90;;
43048;SDS011;28673;44.412;11.918;2023-05-10T08:04:22;11.25;;;7.95;;
43048;SDS011;28673;44.412;11.918;2023-05-10T08:06:51;9.13;;;7.60;;
43048;SDS011;28673;44.412;11.918;2023-05-10T08:09:17;14.30;;;7.60;;
43048;SDS011;28673;44.412;11.918;2023-05-10T08:11:43;7.65;;;6.75;;
43048;SDS011;28673;44.412;11.918;2023-05-10T08:14:11;11.27;;;7.65;;
43048;SDS011;28673;44.412;11.918;2023-05-10T08:16:40;12.90;;;7.45;;
43048;SDS011;28673;44.412;11.918;2023-05-10T08:19:09;13.15;;;8.00;;
43048;SDS011;28673;44.412;11.918;2023-05-10T08:21:35;15.55;;;8.95;;
43048;SDS011;28673;44.412;11.918;2023-05-10T08:24:01;12.63;;;8.80;;
43048;SDS011;28673;44.412;11.918;2023-05-10T08:26:30;14.35;;;7.95;;
43048;SDS011;28673;44.412;11.918;2023-05-10T08:29:10;12.60;;;7.78;;
43048;SDS011;28673;44.412;11.918;2023-05-10T08:31:36;10.68;;;7.78;;
43048;SDS011;28673;44.412;11.918;2023-05-10T08:34:02;11.55;;;7.97;;
43048;SDS011;28673;44.412;11.918;2023-05-10T08:36:28;15.25;;;7.78;;
43048;SDS011;28673;44.412;11.918;2023-05-10T08:38:54;11.35;;;7.47;;
43048;SDS011;28673;44.412;11.918;2023-05-10T08:41:20;10.70;;;7.88;;
43048;SDS011;28673;44.412;11.918;2023-05-10T08:43:47;11.00;;;8.15;;
43048;SDS011;28673;44.412;11.918;2023-05-10T08:46:15;10.40;;;7.53;;
43048;SDS011;28673;44.412;11.918;2023-05-10T08:48:46;13.57;;;8.35;;
43048;SDS011;28673;44.412;11.918;2023-05-10T08:51:14;15.30;;;9.93;;
43048;SDS011;28673;44.412;11.918;2023-05-10T08:53:45;10.93;;;8.30;;
43048;SDS011;28673;44.412;11.918;2023-05-10T08:56:11;11.70;;;8.75;;
43048;SDS011;28673;44.412;11.918;2023-05-10T08:58:37;10.98;;;7.38;;
43048;SDS011;28673;44.412;11.918;2023-05-10T09:01:04;10.25;;;7.95;;
43048;SDS011;28673;44.412;11.918;2023-05-10T09:03:30;12.68;;;8.02;;
43048;SDS011;28673;44.412;11.918;2023-05-10T09:05:56;12.50;;;7.43;;
43048;SDS011;28673;44.412;11.918;2023-05-10T09:08:22;10.45;;;7.38;;
43048;SDS011;28673;44.412;11.918;2023-05-10T09:10:52;17.45;;;8.50;;
43048;SDS011;28673;44.412;11.918;2023-05-10T09:13:22;10.20;;;6.88;;
43048;SDS011;28673;44.412;11.918;2023-05-10T09:15:49;8.65;;;7.18;;
43048;SDS011;28673;44.412;11.918;2023-05-10T09:18:17;16.92;;;8.45;;
43048;SDS011;28673;44.412;11.918;2023-05-10T09:20:43;12.57;;;7.65;;
43048;SDS011;28673;44.412;11.918;2023-05-10T09:23:08;11.30;;;7.82;;
43048;SDS011;28673;44.412;11.918;2023-05-10T09:25:34;12.80;;;8.18;;
43048;SDS011;28673;44.412;11.918;2023-05-10T09:28:00;15.10;;;8.90;;
43048;SDS011;28673;44.412;11.918;2023-05-10T09:30:27;9.35;;;7.97;;
43048;SDS011;28673;44.412;11.918;2023-05-10T09:32:55;11.00;;;8.18;;
43048;SDS011;28673;44.412;11.918;2023-05-10T09:35:25;12.55;;;7.68;;
43048;SDS011;28673;44.412;11.918;2023-05-10T09:37:53;10.27;;;7.85;;
43048;SDS011;28673;44.412;11.918;2023-05-10T09:40:21;8.15;;;7.18;;
43048;SDS011;28673;44.412;11.918;2023-05-10T09:45:23;8.73;;;6.35;;
43048;SDS011;28673;44.412;11.918;2023-05-10T09:47:51;13.25;;;6.47;;
43048;SDS011;28673;44.412;11.918;2023-05-10T09:50:18;11.60;;;6.82;;
43048;SDS011;28673;44.412;11.918;2023-05-10T09:55:20;7.82;;;6.55;;
43048;SDS011;28673;44.412;11.918;2023-05-10T09:58:01;12.45;;;6.30;;
43048;SDS011;28673;44.412;11.918;2023-05-10T10:00:27;8.93;;;7.13;;
43048;SDS011;28673;44.412;11.918;2023-05-10T10:02:59;10.43;;;6.80;;
43048;SDS011;28673;44.412;11.918;2023-05-10T10:05:32;7.47;;;6.53;;
43048;SDS011;28673;44.412;11.918;2023-05-10T10:08:00;15.23;;;6.32;;
43048;SDS011;28673;44.412;11.918;2023-05-10T10:10:28;9.73;;;7.30;;
43048;SDS011;28673;44.412;11.918;2023-05-10T10:12:55;12.20;;;7.82;;
43048;SDS011;28673;44.412;11.918;2023-05-10T10:15:22;11.10;;;8.02;;
43048;SDS011;28673;44.412;11.918;2023-05-10T10:17:49;14.98;;;8.32;;
43048;SDS011;28673;44.412;11.918;2023-05-10T10:20:15;13.27;;;7.85;;
43048;SDS011;28673;44.412;11.918;2023-05-10T10:22:42;10.48;;;7.55;;
43048;SDS011;28673;44.412;11.918;2023-05-10T10:25:12;14.98;;;8.73;;
43048;SDS011;28673;44.412;11.918;2023-05-10T10:30:23;10.63;;;7.32;;
43048;SDS011;28673;44.412;11.918;2023-05-10T10:33:30;10.15;;;7.55;;
43048;SDS011;28673;44.412;11.918;2023-05-10T10:36:45;12.30;;;7.68;;
43048;SDS011;28673;44.412;11.918;2023-05-10T10:39:12;9.95;;;7.45;;
43048;SDS011;28673;44.412;11.918;2023-05-10T10:41:40;11.65;;;7.47;;
43048;SDS011;28673;44.412;11.918;2023-05-10T10:57:31;15.27;;;9.25;;
43048;SDS011;28673;44.412;11.918;2023-05-10T11:08:18;13.80;;;10.70;;
43048;SDS011;28673;44.412;11.918;2023-05-10T11:13:30;21.25;;;13.60;;
43048;SDS011;28673;44.412;11.918;2023-05-10T11:15:57;26.40;;;15.02;;
43048;SDS011;28673;44.412;11.918;2023-05-10T11:18:28;24.15;;;14.32;;
43048;SDS011;28673;44.412;11.918;2023-05-10T11:26:12;24.58;;;15.88;;
43048;SDS011;28673;44.412;11.918;2023-05-10T11:28:45;19.88;;;15.40;;
43048;SDS011;28673;44.412;11.918;2023-05-10T11:31:15;19.65;;;14.57;;
43048;SDS011;28673;44.412;11.918;2023-05-10T11:33:46;22.17;;;14.77;;
43048;SDS011;28673;44.412;11.918;2023-05-10T11:36:34;20.27;;;14.23;;
43048;SDS011;28673;44.412;11.918;2023-05-10T11:39:01;21.23;;;14.48;;
43048;SDS011;28673;44.412;11.918;2023-05-10T11:41:28;22.77;;;14.98;;
43048;SDS011;28673;44.412;11.918;2023-05-10T11:43:56;26.23;;;14.70;;
43048;SDS011;28673;44.412;11.918;2023-05-10T11:46:24;19.67;;;14.80;;
43048;SDS011;28673;44.412;11.918;2023-05-10T11:48:52;23.60;;;14.27;;
43048;SDS011;28673;44.412;11.918;2023-05-10T11:51:29;24.23;;;14.57;;
43048;SDS011;28673;44.412;11.918;2023-05-10T11:54:04;23.95;;;14.82;;
43048;SDS011;28673;44.412;11.918;2023-05-10T11:56:32;18.83;;;13.63;;
43048;SDS011;28673;44.412;11.918;2023-05-10T11:58:58;16.98;;;11.80;;
43048;SDS011;28673;44.412;11.918;2023-05-10T12:01:27;14.40;;;11.52;;
43048;SDS011;28673;44.412;11.918;2023-05-10T12:03:54;19.08;;;12.23;;
43048;SDS011;28673;44.412;11.918;2023-05-10T12:06:25;11.95;;;10.68;;
43048;SDS011;28673;44.412;11.918;2023-05-10T12:08:53;18.23;;;13.25;;
43048;SDS011;28673;44.412;11.918;2023-05-10T12:11:19;19.45;;;13.48;;
43048;SDS011;28673;44.412;11.918;2023-05-10T12:13:47;9.80;;;7.32;;
43048;SDS011;28673;44.412;11.918;2023-05-10T12:16:20;8.77;;;6.80;;
43048;SDS011;28673;44.412;11.918;2023-05-10T12:18:52;5.90;;;4.55;;
43048;SDS011;28673;44.412;11.918;2023-05-10T12:21:20;5.85;;;3.00;;
43048;SDS011;28673;44.412;11.918;2023-05-10T12:23:47;3.97;;;3.17;;
43048;SDS011;28673;44.412;11.918;2023-05-10T12:26:24;2.88;;;2.00;;
43048;SDS011;28673;44.412;11.918;2023-05-10T12:28:52;3.15;;;2.10;;
43048;SDS011;28673;44.412;11.918;2023-05-10T12:31:19;7.10;;;2.72;;
43048;SDS011;28673;44.412;11.918;2023-05-10T12:33:45;2.65;;;1.13;;
43048;SDS011;28673;44.412;11.918;2023-05-10T12:36:12;16.70;;;1.67;;
43048;SDS011;28673;44.412;11.918;2023-05-10T12:38:40;6.13;;;1.35;;
43048;SDS011;28673;44.412;11.918;2023-05-10T12:41:15;3.45;;;1.00;;
43048;SDS011;28673;44.412;11.918;2023-05-10T12:43:42;1.63;;;1.08;;
43048;SDS011;28673;44.412;11.918;2023-05-10T12:46:09;6.55;;;1.38;;
43048;SDS011;28673;44.412;11.918;2023-05-10T12:48:42;2.70;;;1.42;;
43048;SDS011;28673;44.412;11.918;2023-05-10T12:51:09;4.28;;;1.27;;
43048;SDS011;28673;44.412;11.918;2023-05-10T12:53:41;5.22;;;1.73;;
43048;SDS011;28673;44.412;11.918;2023-05-10T12:56:07;2.25;;;1.20;;
43048;SDS011;28673;44.412;11.918;2023-05-10T12:58:33;1.77;;;1.35;;
43048;SDS011;28673;44.412;11.918;2023-05-10T13:01:00;2.33;;;1.52;;
43048;SDS011;28673;44.412;11.918;2023-05-10T13:03:26;1.73;;;1.42;;
43048;SDS011;28673;44.412;11.918;2023-05-10T13:05:52;2.03;;;1.30;;
43048;SDS011;28673;44.412;11.918;2023-05-10T13:08:18;6.75;;;1.58;;
43048;SDS011;28673;44.412;11.918;2023-05-10T13:10:44;5.10;;;2.45;;
43048;SDS011;28673;44.412;11.918;2023-05-10T13:13:10;7.03;;;2.08;;
43048;SDS011;28673;44.412;11.918;2023-05-10T13:15:36;2.80;;;1.60;;
43048;SDS011;28673;44.412;11.918;2023-05-10T13:18:02;4.32;;;1.90;;
43048;SDS011;28673;44.412;11.918;2023-05-10T13:20:28;1.73;;;1.48;;
43048;SDS011;28673;44.412;11.918;2023-05-10T13:22:54;8.70;;;2.05;;
43048;SDS011;28673;44.412;11.918;2023-05-10T13:25:19;2.03;;;1.63;;
43048;SDS011;28673;44.412;11.918;2023-05-10T13:27:45;3.13;;;2.10;;
43048;SDS011;28673;44.412;11.918;2023-05-10T13:30:11;2.00;;;1.80;;
43048;SDS011;28673;44.412;11.918;2023-05-10T13:32:37;2.50;;;2.28;;
43048;SDS011;28673;44.412;11.918;2023-05-10T13:35:04;3.10;;;2.50;;
43048;SDS011;28673;44.412;11.918;2023-05-10T13:37:30;2.65;;;2.33;;
43048;SDS011;28673;44.412;11.918;2023-05-10T13:39:57;4.20;;;2.50;;
43048;SDS011;28673;44.412;11.918;2023-05-10T13:42:23;5.15;;;2.75;;
43048;SDS011;28673;44.412;11.918;2023-05-10T13:44:52;2.10;;;1.90;;
43048;SDS011;28673;44.412;11.918;2023-05-10T13:47:18;3.90;;;1.98;;
43048;SDS011;28673;44.412;11.918;2023-05-10T13:49:44;4.07;;;2.33;;
43048;SDS011;28673;44.412;11.918;2023-05-10T13:52:09;7.18;;;2.58;;
43048;SDS011;28673;44.412;11.918;2023-05-10T13:54:36;4.22;;;1.77;;
43048;SDS011;28673;44.412;11.918;2023-05-10T13:57:03;3.10;;;1.88;;
43048;SDS011;28673;44.412;11.918;2023-05-10T13:59:29;2.13;;;1.75;;
43048;SDS011;28673;44.412;11.918;2023-05-10T14:01:58;1.88;;;1.45;;
43048;SDS011;28673;44.412;11.918;2023-05-10T14:04:24;8.10;;;2.03;;
43048;SDS011;28673;44.412;11.918;2023-05-10T14:06:53;4.28;;;1.90;;
43048;SDS011;28673;44.412;11.918;2023-05-10T14:09:19;5.35;;;1.70;;
43048;SDS011;28673;44.412;11.918;2023-05-10T14:11:45;1.85;;;1.40;;
43048;SDS011;28673;44.412;11.918;2023-05-10T14:14:12;2.70;;;1.45;;
43048;SDS011;28673;44.412;11.918;2023-05-10T14:16:41;1.88;;;1.58;;
43048;SDS011;28673;44.412;11.918;2023-05-10T14:19:08;2.60;;;1.75;;
43048;SDS011;28673;44.412;11.918;2023-05-10T14:21:33;1.58;;;1.48;;
43048;SDS011;28673;44.412;11.918;2023-05-10T14:23:59;1.02;;;0.93;;
43048;SDS011;28673;44.412;11.918;2023-05-10T14:26:25;1.65;;;1.23;;
43048;SDS011;28673;44.412;11.918;2023-05-10T14:28:52;3.47;;;1.80;;
43048;SDS011;28673;44.412;11.918;2023-05-10T14:31:18;2.05;;;1.33;;
43048;SDS011;28673;44.412;11.918;2023-05-10T14:33:48;2.05;;;1.33;;
43048;SDS011;28673;44.412;11.918;2023-05-10T14:36:14;2.25;;;1.55;;
43048;SDS011;28673;44.412;11.918;2023-05-10T14:38:40;1.60;;;1.48;;
43048;SDS011;28673;44.412;11.918;2023-05-10T14:41:06;2.55;;;1.63;;
43048;SDS011;28673;44.412;11.918;2023-05-10T14:43:32;1.50;;;1.40;;
43048;SDS011;28673;44.412;11.918;2023-05-10T14:45:58;1.95;;;1.33;;
43048;SDS011;28673;44.412;11.918;2023-05-10T14:48:23;1.60;;;1.35;;
43048;SDS011;28673;44.412;11.918;2023-05-10T14:50:49;1.73;;;1.25;;
43048;SDS011;28673;44.412;11.918;2023-05-10T14:53:17;5.45;;;1.30;;
43048;SDS011;28673;44.412;11.918;2023-05-10T14:55:43;2.10;;;1.90;;
43048;SDS011;28673;44.412;11.918;2023-05-10T14:58:09;2.00;;;1.55;;
43048;SDS011;28673;44.412;11.918;2023-05-10T15:00:35;4.60;;;1.55;;
43048;SDS011;28673;44.412;11.918;2023-05-10T15:03:01;1.60;;;1.40;;
43048;SDS011;28673;44.412;11.918;2023-05-10T15:05:27;1.42;;;1.33;;
43048;SDS011;28673;44.412;11.918;2023-05-10T15:07:53;1.30;;;1.20;;
43048;SDS011;28673;44.412;11.918;2023-05-10T15:10:19;1.75;;;1.50;;
43048;SDS011;28673;44.412;11.918;2023-05-10T15:12:45;7.57;;;1.70;;
43048;SDS011;28673;44.412;11.918;2023-05-10T15:15:11;3.72;;;1.95;;
43048;SDS011;28673;44.412;11.918;2023-05-10T15:17:37;2.05;;;1.52;;
43048;SDS011;28673;44.412;11.918;2023-05-10T15:20:03;3.30;;;1.65;;
43048;SDS011;28673;44.412;11.918;2023-05-10T15:22:29;1.90;;;1.70;;
43048;SDS011;28673;44.412;11.918;2023-05-10T15:24:57;2.28;;;1.35;;
43048;SDS011;28673;44.412;11.918;2023-05-10T15:27:24;1.88;;;1.52;;
43048;SDS011;28673;44.412;11.918;2023-05-10T15:29:50;1.92;;;1.73;;
43048;SDS011;28673;44.412;11.918;2023-05-10T15:32:16;1.65;;;1.55;;
43048;SDS011;28673;44.412;11.918;2023-05-10T15:34:42;4.70;;;2.83;;
43048;SDS011;28673;44.412;11.918;2023-05-10T15:37:08;2.75;;;2.15;;
43048;SDS011;28673;44.412;11.918;2023-05-10T15:39:34;3.47;;;2.13;;
43048;SDS011;28673;44.412;11.918;2023-05-10T15:42:00;3.28;;;2.97;;